Farmersburg, Indiana
Current Conditions -  °F | °C
As of 2:53 AM on Tuesday 27 Jan 2015 (Local Time) from KHUF Reporting Station
Light Snow Light Snow  
Wind Chill: 23°   Ceiling: 500
Heat Index: 28°   Visibility: 7mi
Dew Point: 26°   Wind: 5mph
Humidity: 92%   Direction: 130°SE
Pressure: 29.92"   Gusts: NA
Location:  39.25°N, 87.38°W
Report Text: KHUF 270753Z 13004KT 7SM -SN OVC005 M02/M03 A2992 RMK AO2 SLP137 P0000 T10221033
Loading
Personal Weather Stations






























Interactive Weather Map New forecast layout! Learn more

10-Day Weather Forecast

Advertisements
Track Severe Weather on mobile